createdAt,value
2018-08-03T00:00:48.413Z,64.55
2018-08-03T00:03:18.370Z,64.39
2018-08-03T00:05:47.949Z,65.19
2018-08-03T00:08:18.918Z,65.15
2018-08-03T00:10:48.662Z,66.02
2018-08-03T00:13:18.408Z,65.18
2018-08-03T00:15:48.203Z,65.33
2018-08-03T00:18:17.731Z,66.71
2018-08-03T00:20:47.056Z,67.46
2018-08-03T00:23:17.050Z,67.50
2018-08-03T00:25:47.600Z,68.75
2018-08-03T00:28:17.169Z,68.16
2018-08-03T00:30:47.225Z,67.48
2018-08-03T00:33:17.036Z,68.16
2018-08-03T00:35:46.421Z,69.13
2018-08-03T00:38:15.800Z,69.42
2018-08-03T00:40:45.261Z,68.97
2018-08-03T00:43:14.524Z,68.91
2018-08-03T00:45:43.825Z,69.08
2018-08-03T00:48:13.141Z,69.15
2018-08-03T00:50:42.338Z,69.11
2018-08-03T00:53:11.735Z,69.59
2018-08-03T00:55:40.985Z,68.82
2018-08-03T00:58:10.348Z,68.98
2018-08-03T01:00:39.687Z,70.33
2018-08-03T01:03:09.277Z,70.18
2018-08-03T01:05:38.594Z,69.52
2018-08-03T01:08:08.375Z,70.35
2018-08-03T01:10:37.647Z,70.58
2018-08-03T01:13:07.349Z,70.10
2018-08-03T01:15:37.601Z,70.09
2018-08-03T01:18:06.992Z,70.17
2018-08-03T01:20:36.948Z,71.05
2018-08-03T01:23:06.924Z,69.99
2018-08-03T01:25:36.192Z,70.19
2018-08-03T01:28:05.832Z,70.11
2018-08-03T01:30:35.161Z,70.36
2018-08-03T01:33:04.403Z,70.33
2018-08-03T01:35:33.860Z,69.52
2018-08-03T01:38:03.117Z,70.01
2018-08-03T01:40:32.450Z,69.96
2018-08-03T01:43:01.615Z,70.72
2018-08-03T01:45:30.945Z,71.21
2018-08-03T01:48:00.361Z,70.70
2018-08-03T01:50:30.399Z,70.47
2018-08-03T01:52:59.712Z,70.61
2018-08-03T01:55:28.972Z,70.80
2018-08-03T01:57:58.251Z,71.80
2018-08-03T02:00:27.718Z,71.85
2018-08-03T02:02:56.940Z,72.40
2018-08-03T02:05:26.921Z,71.12
2018-08-03T02:07:56.160Z,71.75
2018-08-03T02:10:25.415Z,71.75
2018-08-03T02:12:54.849Z,71.87
2018-08-03T02:15:24.303Z,71.88
2018-08-03T02:17:53.872Z,71.59
2018-08-03T02:20:23.209Z,71.19
2018-08-03T02:22:52.745Z,70.99
2018-08-03T02:25:22.140Z,70.66
2018-08-03T02:27:51.442Z,71.56
2018-08-03T02:30:20.982Z,71.63
2018-08-03T02:32:50.417Z,71.77
2018-08-03T02:35:20.137Z,72.67
2018-08-03T02:37:49.440Z,72.29
2018-08-03T02:40:18.926Z,72.98
2018-08-03T02:42:48.234Z,73.33
2018-08-03T02:45:17.640Z,73.51
2018-08-03T02:47:47.147Z,73.27
2018-08-03T02:50:17.406Z,74.17
2018-08-03T02:52:46.763Z,73.85
2018-08-03T02:55:16.160Z,73.83
2018-08-03T02:57:45.682Z,73.63
2018-08-03T03:00:15.095Z,74.00
2018-08-03T03:02:44.393Z,73.39
2018-08-03T03:05:13.672Z,73.50
2018-08-03T03:07:42.923Z,73.53
2018-08-03T03:10:12.133Z,73.44
2018-08-03T03:12:41.624Z,73.38
2018-08-03T03:15:10.871Z,73.36
2018-08-03T03:17:41.170Z,72.25
2018-08-03T03:20:10.404Z,72.96
2018-08-03T03:22:39.733Z,72.36
2018-08-03T03:25:08.970Z,72.89
2018-08-03T03:27:38.607Z,71.54
2018-08-03T03:30:08.686Z,72.16
2018-08-03T03:32:38.067Z,71.66
2018-08-03T03:35:07.447Z,71.32
2018-08-03T03:37:38.059Z,71.35
2018-08-03T03:40:07.349Z,72.21
2018-08-03T03:42:37.036Z,72.37
2018-08-03T03:45:06.445Z,71.99
2018-08-03T03:47:35.714Z,71.02
2018-08-03T03:50:06.026Z,70.60
2018-08-03T03:52:35.490Z,71.19
2018-08-03T03:55:04.915Z,71.72
2018-08-03T03:57:35.808Z,73.42
2018-08-03T04:00:06.514Z,72.18
2018-08-03T04:02:35.899Z,73.49
2018-08-03T04:05:07.220Z,73.50
2018-08-03T04:07:36.409Z,74.85
2018-08-03T04:10:05.908Z,74.11
2018-08-03T04:12:35.273Z,73.88
2018-08-03T04:15:04.823Z,73.54
2018-08-03T04:17:34.152Z,72.83
2018-08-03T04:20:04.612Z,71.90
2018-08-03T04:22:33.977Z,71.47
2018-08-03T04:25:03.606Z,72.29
2018-08-03T04:27:33.423Z,72.78
2018-08-03T04:30:03.013Z,71.95
2018-08-03T04:32:32.211Z,73.10
2018-08-03T04:35:01.658Z,72.28
2018-08-03T04:37:31.029Z,73.49
2018-08-03T04:40:00.420Z,74.29
2018-08-03T04:42:29.696Z,73.57
2018-08-03T04:44:58.934Z,74.16
2018-08-03T04:47:28.214Z,72.75
2018-08-03T04:49:57.844Z,73.33
2018-08-03T04:52:27.087Z,72.44
2018-08-03T04:54:56.409Z,71.11
2018-08-03T04:57:25.996Z,72.67
2018-08-03T04:59:55.221Z,71.58
2018-08-03T05:02:24.707Z,71.64
2018-08-03T05:04:54.828Z,72.45
2018-08-03T05:07:24.073Z,72.24
2018-08-03T05:09:53.739Z,71.33
2018-08-03T05:12:23.111Z,70.95
2018-08-03T05:14:52.441Z,70.95
2018-08-03T05:17:21.858Z,70.19
2018-08-03T05:19:51.662Z,69.83
2018-08-03T05:22:21.125Z,69.54
2018-08-03T05:24:50.588Z,69.21
2018-08-03T05:27:20.103Z,68.71
2018-08-03T05:29:49.675Z,68.17
2018-08-03T05:32:19.030Z,67.09
2018-08-03T05:34:48.377Z,66.69
2018-08-03T05:37:17.784Z,67.19
2018-08-03T05:39:47.210Z,65.09
2018-08-03T05:42:16.518Z,64.79
2018-08-03T05:44:45.925Z,64.25
2018-08-03T05:47:16.015Z,61.98
2018-08-03T05:49:45.763Z,61.43
2018-08-03T05:52:15.092Z,61.24
2018-08-03T05:54:45.444Z,60.34
2018-08-03T05:57:14.946Z,60.36
2018-08-03T05:59:44.456Z,60.92
2018-08-03T06:02:13.786Z,59.39
2018-08-03T06:04:43.067Z,58.24
2018-08-03T06:07:12.285Z,56.73
2018-08-03T06:09:41.477Z,55.34
2018-08-03T06:12:10.823Z,55.37
2018-08-03T06:14:40.088Z,54.93
2018-08-03T06:17:09.294Z,53.77
2018-08-03T06:19:39.867Z,52.94
2018-08-03T06:22:09.125Z,53.11
2018-08-03T06:24:38.409Z,52.64
2018-08-03T06:27:08.565Z,53.27
2018-08-03T06:29:37.755Z,53.84
2018-08-03T06:32:07.094Z,52.51
2018-08-03T06:34:36.517Z,52.83
2018-08-03T06:37:06.563Z,52.22
2018-08-03T06:39:36.270Z,50.46
2018-08-03T06:42:05.664Z,50.13
2018-08-03T06:44:35.084Z,50.13
2018-08-03T06:47:04.475Z,50.69
2018-08-03T06:49:34.564Z,50.65
2018-08-03T06:52:04.165Z,53.00
2018-08-03T06:54:33.715Z,52.57
2018-08-03T06:57:03.677Z,53.23
2018-08-03T06:59:32.972Z,52.50
2018-08-03T07:02:02.512Z,51.98
2018-08-03T07:04:32.286Z,51.32
2018-08-03T07:07:02.773Z,51.46
2018-08-03T07:09:32.346Z,50.60
2018-08-03T07:12:01.571Z,50.51
2018-08-03T07:14:30.890Z,50.73
2018-08-03T07:17:00.706Z,51.38
2018-08-03T07:19:30.996Z,50.99
2018-08-03T07:22:00.199Z,49.96
2018-08-03T07:24:29.513Z,49.30
2018-08-03T07:26:58.815Z,49.39
2018-08-03T07:29:28.025Z,50.31
2018-08-03T07:31:57.241Z,49.56
2018-08-03T07:34:27.835Z,49.88
2018-08-03T07:36:57.190Z,48.83
2018-08-03T07:39:26.389Z,47.80
2018-08-03T07:41:55.964Z,48.21
2018-08-03T07:44:25.338Z,47.03
2018-08-03T07:46:54.694Z,47.77
2018-08-03T07:49:24.108Z,47.55
2018-08-03T07:51:53.585Z,47.13
2018-08-03T07:54:23.056Z,46.43
2018-08-03T07:56:52.651Z,46.60
2018-08-03T07:59:22.512Z,45.25
2018-08-03T08:01:54.962Z,45.78
2018-08-03T08:04:27.062Z,43.56
2018-08-03T08:06:56.476Z,43.01
2018-08-03T08:09:25.926Z,44.23
2018-08-03T08:11:55.358Z,43.86
2018-08-03T08:14:25.527Z,43.97
2018-08-03T08:16:55.910Z,44.26
2018-08-03T08:19:25.177Z,45.78
2018-08-03T08:21:55.658Z,46.20
2018-08-03T08:24:24.861Z,46.05
2018-08-03T08:26:54.640Z,46.75
2018-08-03T08:29:24.323Z,47.00
2018-08-03T08:31:53.709Z,46.90
2018-08-03T08:34:23.211Z,46.39
2018-08-03T08:36:52.769Z,46.21
2018-08-03T08:39:22.580Z,47.09
2018-08-03T08:41:52.016Z,46.58
2018-08-03T08:44:21.508Z,46.71
2018-08-03T08:46:51.170Z,45.62
2018-08-03T08:49:20.767Z,44.98
2018-08-03T08:51:50.271Z,45.26
2018-08-03T08:54:19.759Z,45.19
2018-08-03T08:56:50.364Z,46.75
2018-08-03T08:59:19.941Z,46.20
2018-08-03T09:01:49.877Z,45.27
2018-08-03T09:04:21.244Z,44.19
2018-08-03T09:06:50.472Z,44.77
2018-08-03T09:09:20.301Z,45.66
2018-08-03T09:11:49.856Z,45.39
2018-08-03T09:14:19.606Z,44.58
2018-08-03T09:16:49.109Z,44.91
2018-08-03T09:19:19.793Z,44.12
2018-08-03T09:21:50.351Z,43.22
2018-08-03T09:24:27.478Z,44.26
2018-08-03T09:26:57.828Z,43.29
2018-08-03T09:29:28.037Z,44.27
2018-08-03T09:31:57.385Z,43.38
2018-08-03T09:34:27.245Z,43.19
2018-08-03T09:36:56.532Z,42.99
2018-08-03T09:39:25.818Z,42.62
2018-08-03T09:41:55.124Z,39.68
2018-08-03T09:44:24.461Z,39.86
2018-08-03T09:46:53.934Z,38.98
2018-08-03T09:49:23.719Z,36.00
2018-08-03T09:51:53.239Z,35.00
2018-08-03T09:54:22.708Z,33.81
2018-08-03T09:56:52.995Z,34.85
2018-08-03T09:59:22.706Z,33.48
2018-08-03T10:01:52.242Z,31.18
2018-08-03T10:04:21.806Z,30.82
2018-08-03T10:06:51.858Z,30.68
2018-08-03T10:09:21.239Z,30.29
2018-08-03T10:11:51.894Z,30.79
2018-08-03T10:14:21.389Z,30.86
2018-08-03T10:16:50.939Z,30.50
2018-08-03T10:19:20.539Z,29.60
2018-08-03T10:21:49.983Z,29.68
2018-08-03T10:24:19.631Z,29.33
2018-08-03T10:26:49.125Z,29.80
2018-08-03T10:29:19.423Z,31.02
2018-08-03T10:31:48.857Z,30.83
2018-08-03T10:34:18.380Z,31.62
2018-08-03T10:36:47.870Z,32.49
2018-08-03T10:39:17.606Z,30.84
2018-08-03T10:41:47.256Z,30.68
2018-08-03T10:44:17.729Z,31.69
2018-08-03T10:46:47.293Z,30.56
2018-08-03T10:49:17.068Z,30.80
2018-08-03T10:51:46.771Z,31.64
2018-08-03T10:54:16.785Z,32.53
2018-08-03T10:56:46.175Z,33.66
2018-08-03T10:59:16.534Z,33.38
2018-08-03T11:01:46.389Z,32.03
2018-08-03T11:04:16.521Z,33.58
2018-08-03T11:06:47.827Z,34.04
2018-08-03T11:09:17.659Z,35.13
2018-08-03T11:11:47.286Z,33.97
2018-08-03T11:14:17.010Z,32.38
2018-08-03T11:16:47.961Z,31.70
2018-08-03T11:19:17.760Z,34.47
2018-08-03T11:21:48.690Z,34.40
2018-08-03T11:24:18.296Z,34.58
2018-08-03T11:26:47.988Z,34.14
2018-08-03T11:29:18.305Z,32.80
2018-08-03T11:31:47.732Z,30.66
2018-08-03T11:34:17.477Z,31.00
2018-08-03T11:36:47.568Z,30.09
2018-08-03T11:39:16.988Z,29.08
2018-08-03T11:41:46.269Z,33.89
2018-08-03T11:44:16.362Z,38.42
2018-08-03T11:46:46.050Z,39.13
2018-08-03T11:49:15.609Z,41.40
2018-08-03T11:51:45.495Z,44.14
2018-08-03T11:54:15.478Z,45.95
2018-08-03T11:56:44.775Z,45.35
2018-08-03T11:59:14.241Z,42.93
2018-08-03T12:01:43.602Z,41.62
2018-08-03T12:04:12.969Z,41.92
2018-08-03T12:06:43.458Z,42.00
2018-08-03T12:09:13.942Z,40.84
2018-08-03T12:11:43.250Z,39.52
2018-08-03T12:14:12.999Z,37.42
2018-08-03T12:16:43.090Z,42.54
2018-08-03T12:19:12.346Z,41.80
2018-08-03T12:21:41.719Z,39.05
2018-08-03T12:24:10.976Z,37.28
2018-08-03T12:26:41.285Z,37.73
2018-08-03T12:29:10.646Z,40.20
2018-08-03T12:31:40.055Z,41.38
2018-08-03T12:34:09.314Z,41.92
2018-08-03T12:36:38.618Z,44.39
2018-08-03T12:39:09.225Z,44.88
2018-08-03T12:41:38.999Z,42.74
2018-08-03T12:44:08.539Z,41.59
2018-08-03T12:46:37.727Z,41.76
2018-08-03T12:49:08.004Z,39.76
2018-08-03T12:51:37.317Z,37.44
2018-08-03T12:54:06.547Z,39.57
2018-08-03T12:56:36.806Z,41.75
2018-08-03T12:59:06.001Z,40.39
2018-08-03T13:01:35.269Z,38.36
2018-08-03T13:04:05.792Z,37.00
2018-08-03T13:06:35.069Z,38.22
2018-08-03T13:09:06.703Z,35.84
2018-08-03T13:11:35.873Z,37.12
2018-08-03T13:14:05.132Z,35.53
2018-08-03T13:16:34.506Z,35.75
2018-08-03T13:19:03.773Z,35.47
2018-08-03T13:21:37.935Z,36.14
2018-08-03T13:24:07.467Z,36.86
2018-08-03T13:26:36.878Z,37.11
2018-08-03T13:29:06.648Z,37.44
2018-08-03T13:31:36.037Z,37.17
2018-08-03T13:34:05.383Z,36.36
2018-08-03T13:36:34.669Z,34.38
2018-08-03T13:39:05.934Z,34.50
2018-08-03T13:41:36.480Z,34.31
2018-08-03T13:44:09.931Z,35.21
2018-08-03T13:46:40.523Z,35.18
2018-08-03T13:49:10.710Z,37.89
2018-08-03T13:51:39.977Z,39.83
2018-08-03T13:54:09.900Z,39.18
2018-08-03T13:56:39.121Z,37.52
2018-08-03T13:59:08.325Z,38.99
2018-08-03T14:01:51.607Z,40.06
2018-08-03T14:04:21.066Z,39.91
2018-08-03T14:06:50.381Z,38.44
2018-08-03T14:09:20.347Z,38.44
2018-08-03T14:11:49.701Z,38.45
2018-08-03T14:14:19.154Z,37.82
2018-08-03T14:16:49.815Z,38.48
2018-08-03T14:19:19.104Z,39.20
2018-08-03T14:21:48.640Z,38.59
2018-08-03T14:24:19.585Z,38.43
2018-08-03T14:26:49.040Z,37.44
2018-08-03T14:29:18.448Z,39.58
2018-08-03T14:31:48.485Z,39.76
2018-08-03T14:34:17.761Z,40.41
2018-08-03T14:36:48.512Z,40.28
2018-08-03T14:39:18.048Z,42.60
2018-08-03T14:41:48.869Z,41.50
2018-08-03T14:44:18.433Z,41.13
2018-08-03T14:46:49.792Z,39.27
2018-08-03T14:49:19.303Z,38.73
2018-08-03T14:51:51.537Z,37.15
2018-08-03T14:54:25.618Z,35.24
2018-08-03T14:56:54.919Z,35.15
2018-08-03T14:59:29.608Z,35.07
2018-08-03T15:02:02.800Z,36.09
2018-08-03T15:04:32.211Z,38.15
2018-08-03T15:07:01.492Z,38.26
2018-08-03T15:09:30.794Z,38.56
2018-08-03T15:12:00.069Z,37.22
2018-08-03T15:14:30.219Z,36.93
2018-08-03T15:16:59.456Z,36.10
2018-08-03T15:19:28.828Z,34.16
2018-08-03T15:21:58.278Z,35.33
2018-08-03T15:24:27.605Z,37.22
2018-08-03T15:26:57.853Z,37.32
2018-08-03T15:29:27.103Z,36.31
2018-08-03T15:31:56.451Z,34.95
2018-08-03T15:34:26.269Z,34.44
2018-08-03T15:36:56.620Z,34.30
2018-08-03T15:39:27.389Z,35.20
2018-08-03T15:41:56.666Z,37.26
2018-08-03T15:44:26.187Z,38.18
2018-08-03T15:46:55.607Z,37.72
2018-08-03T15:49:25.153Z,37.83
2018-08-03T15:51:57.265Z,35.02
2018-08-03T15:54:26.638Z,34.84
2018-08-03T15:56:56.120Z,33.70
2018-08-03T15:59:26.015Z,34.61
2018-08-03T16:01:55.384Z,35.10
2018-08-03T16:04:24.859Z,34.79
2018-08-03T16:06:54.316Z,32.50
2018-08-03T16:09:23.840Z,34.15
2018-08-03T16:11:53.246Z,33.32
2018-08-03T16:14:23.895Z,33.56
2018-08-03T16:16:53.386Z,35.14
2018-08-03T16:19:22.867Z,37.30
2018-08-03T16:21:52.513Z,38.57
2018-08-03T16:24:21.990Z,38.84
2018-08-03T16:26:52.008Z,39.16
2018-08-03T16:29:21.408Z,40.20
2018-08-03T16:31:50.861Z,40.69
2018-08-03T16:34:20.339Z,40.29
2018-08-03T16:36:50.396Z,40.45
2018-08-03T16:39:19.988Z,40.77
2018-08-03T16:41:49.505Z,41.70
2018-08-03T16:44:19.100Z,40.29
2018-08-03T16:46:48.480Z,41.78
2018-08-03T16:49:18.081Z,40.60
2018-08-03T16:51:47.684Z,39.65
2018-08-03T16:54:17.728Z,40.74
2018-08-03T16:56:47.354Z,40.01
2018-08-03T16:59:17.423Z,41.24
2018-08-03T17:01:47.216Z,40.36
2018-08-03T17:04:16.652Z,40.07
2018-08-03T17:06:47.295Z,38.03
2018-08-03T17:09:16.793Z,38.66
2018-08-03T17:11:47.043Z,34.17
2018-08-03T17:14:17.695Z,32.18
2018-08-03T17:16:47.644Z,30.98
2018-08-03T17:19:17.400Z,29.77
2018-08-03T17:21:48.254Z,30.47
2018-08-03T17:24:17.765Z,38.45
2018-08-03T17:26:48.467Z,41.06
2018-08-03T17:29:18.151Z,42.18
2018-08-03T17:31:48.467Z,42.36
2018-08-03T17:34:18.367Z,40.62
2018-08-03T17:36:50.054Z,42.02
2018-08-03T17:39:22.682Z,41.76
2018-08-03T17:41:53.223Z,41.87
2018-08-03T17:44:24.088Z,42.42
2018-08-03T17:46:56.177Z,42.55
2018-08-03T17:49:25.938Z,42.87
2018-08-03T17:51:55.400Z,43.04
2018-08-03T17:54:34.109Z,43.72
2018-08-03T17:57:03.967Z,44.15
2018-08-03T17:59:34.165Z,43.35
2018-08-03T18:02:03.993Z,43.78
2018-08-03T18:04:34.838Z,44.22
2018-08-03T18:07:04.410Z,43.16
2018-08-03T18:09:33.845Z,43.28
2018-08-03T18:12:03.266Z,41.83
2018-08-03T18:14:32.697Z,40.89
2018-08-03T18:17:02.496Z,40.68
2018-08-03T18:19:31.767Z,40.17
2018-08-03T18:22:01.642Z,40.42
2018-08-03T18:24:31.864Z,41.28
2018-08-03T18:27:01.195Z,41.00
2018-08-03T18:29:30.860Z,40.78
2018-08-03T18:32:00.165Z,40.71
2018-08-03T18:34:29.418Z,41.21
2018-08-03T18:36:59.155Z,42.62
2018-08-03T18:39:28.450Z,43.32
2018-08-03T18:41:57.701Z,43.49
2018-08-03T18:44:27.701Z,43.52
2018-08-03T18:46:56.975Z,43.67
2018-08-03T18:49:26.268Z,44.37
2018-08-03T18:51:55.884Z,44.42
2018-08-03T18:54:25.250Z,43.54
2018-08-03T18:56:54.740Z,44.10
2018-08-03T18:59:24.283Z,43.47
2018-08-03T19:01:53.665Z,43.81
2018-08-03T19:04:23.097Z,43.11
2018-08-03T19:06:52.552Z,43.52
2018-08-03T19:09:22.397Z,43.56
2018-08-03T19:11:52.577Z,44.31
2018-08-03T19:14:22.040Z,43.64
2018-08-03T19:16:51.570Z,43.59
2018-08-03T19:19:20.946Z,44.25
2018-08-03T19:21:50.635Z,45.04
2018-08-03T19:24:20.025Z,45.14
2018-08-03T19:26:49.389Z,45.51
2018-08-03T19:29:18.828Z,44.98
2018-08-03T19:31:48.238Z,44.55
2018-08-03T19:34:18.040Z,44.98
2018-08-03T19:36:49.275Z,45.05
2018-08-03T19:39:18.682Z,45.72
2018-08-03T19:41:48.348Z,45.34
2018-08-03T19:44:18.817Z,45.72
2018-08-03T19:46:48.744Z,45.94
2018-08-03T19:49:18.070Z,46.93
2018-08-03T19:51:48.770Z,46.99
2018-08-03T19:54:18.511Z,47.73
2018-08-03T19:56:47.995Z,47.86
2018-08-03T19:59:18.575Z,47.55
2018-08-03T20:01:48.048Z,48.37
2018-08-03T20:04:17.677Z,47.72
2018-08-03T20:06:48.302Z,48.71
2018-08-03T20:09:18.921Z,49.37
2018-08-03T20:11:49.777Z,48.08
2018-08-03T20:14:20.307Z,48.66
2018-08-03T20:16:49.997Z,48.94
2018-08-03T20:19:19.730Z,49.18
2018-08-03T20:21:49.658Z,50.12
2018-08-03T20:24:19.909Z,50.89
2018-08-03T20:26:51.606Z,50.22
2018-08-03T20:29:24.488Z,51.37
2018-08-03T20:31:55.351Z,50.72
2018-08-03T20:34:25.278Z,50.95
2018-08-03T20:36:54.987Z,52.49
2018-08-03T20:39:25.327Z,53.17
2018-08-03T20:41:56.006Z,53.49
2018-08-03T20:44:26.036Z,54.88
2018-08-03T20:46:56.363Z,55.80
2018-08-03T20:49:25.980Z,56.11
2018-08-03T20:51:56.674Z,55.98
2018-08-03T20:54:26.693Z,57.43
2018-08-03T20:56:56.102Z,57.52
2018-08-03T20:59:26.294Z,57.90
2018-08-03T21:01:56.772Z,57.54
2018-08-03T21:04:27.140Z,59.80
2018-08-03T21:06:57.629Z,58.64
2018-08-03T21:09:28.534Z,60.07
2018-08-03T21:11:59.928Z,59.81
2018-08-03T21:14:30.573Z,60.30
2018-08-03T21:17:00.161Z,61.41
2018-08-03T21:19:29.558Z,60.21
2018-08-03T21:21:59.509Z,60.72
2018-08-03T21:24:30.014Z,61.31
2018-08-03T21:26:59.275Z,62.80
2018-08-03T21:29:29.748Z,62.57
2018-08-03T21:31:59.404Z,62.79
2018-08-03T21:34:28.728Z,63.19
2018-08-03T21:36:58.154Z,63.63
2018-08-03T21:39:27.816Z,64.64
2018-08-03T21:41:57.590Z,65.17
2018-08-03T21:44:30.222Z,65.96
2018-08-03T21:46:59.885Z,65.56
2018-08-03T21:49:29.951Z,66.39
2018-08-03T21:52:00.092Z,65.97
2018-08-03T21:54:30.368Z,66.68
2018-08-03T21:57:00.378Z,67.46
2018-08-03T21:59:30.770Z,68.38
2018-08-03T22:02:10.401Z,68.06
2018-08-03T22:04:39.855Z,68.27
2018-08-03T22:07:13.295Z,69.37
2018-08-03T22:09:45.564Z,68.58
2018-08-03T22:12:16.520Z,69.44
2018-08-03T22:14:51.442Z,69.90
2018-08-03T22:17:25.374Z,69.73
2018-08-03T22:19:58.240Z,69.69
2018-08-03T22:22:27.677Z,69.34
2018-08-03T22:25:00.373Z,70.55
2018-08-03T22:27:31.135Z,70.18
2018-08-03T22:30:00.891Z,70.28
2018-08-03T22:32:31.466Z,71.04
2018-08-03T22:35:04.126Z,70.69
2018-08-03T22:37:34.115Z,71.62
2018-08-03T22:40:07.198Z,71.41
2018-08-03T22:42:38.766Z,71.17
2018-08-03T22:45:10.262Z,71.75
2018-08-03T22:47:40.764Z,72.33
2018-08-03T22:50:13.985Z,72.14
2018-08-03T22:52:48.668Z,72.08
2018-08-03T22:55:19.568Z,72.37
2018-08-03T22:57:57.348Z,71.84
2018-08-03T23:00:30.619Z,72.43
2018-08-03T23:03:04.971Z,72.78
2018-08-03T23:05:36.139Z,72.39
2018-08-03T23:08:05.939Z,72.33
2018-08-03T23:10:36.207Z,73.05
2018-08-03T23:13:06.304Z,72.96
2018-08-03T23:15:36.025Z,72.42
2018-08-03T23:18:05.651Z,72.47
2018-08-03T23:20:35.833Z,72.60
2018-08-03T23:23:05.143Z,71.99
2018-08-03T23:25:35.484Z,72.89
2018-08-03T23:28:04.987Z,72.93
2018-08-03T23:30:34.384Z,72.94
2018-08-03T23:33:03.641Z,73.62
2018-08-03T23:35:34.518Z,73.33
2018-08-03T23:38:04.931Z,72.82
2018-08-03T23:40:34.201Z,73.45
2018-08-03T23:43:03.696Z,72.48
2018-08-03T23:45:32.877Z,72.22
2018-08-03T23:48:02.321Z,72.53
2018-08-03T23:50:31.643Z,72.25
2018-08-03T23:53:00.973Z,72.04
2018-08-03T23:55:30.228Z,72.72
2018-08-03T23:58:00.366Z,73.40
